Time;durP1;ratioP1;P1;durP2;ratioP2;P2;SDS_P1;SDS_P2;PMS_P1;PMS_P2;Temp;Humidity;BMP_temperature;BMP_pressure;BME280_temperature;BME280_humidity;BME280_pressure;Samples;Min_cycle;Max_cycle;Signal;HPM_P1;HPM_P2
2022/07/27 00:00:19;;;;;;;0.00;0.00;;;17.00;65.70;;;18.53;56.31;102002.94;2079018;28;20133;-65
2022/07/27 00:01:21;;;;;;;0.10;0.10;;;16.90;65.70;;;18.52;56.45;102006.03;2078884;28;20524;-63
2022/07/27 00:02:28;;;;;;;0.08;0.08;;;16.90;65.80;;;18.46;56.35;102000.06;2077478;28;20453;-63
2022/07/27 00:03:31;;;;;;;0.08;0.08;;;16.90;65.80;;;18.46;56.10;102010.22;2077655;28;20056;-63
2022/07/27 00:04:34;;;;;;;0.10;0.10;;;16.90;65.90;;;18.44;56.50;102002.38;2077825;28;20504;-63
2022/07/27 00:05:38;;;;;;;0.10;0.10;;;16.90;65.90;;;18.41;56.31;101999.59;2076745;28;20565;-63
2022/07/27 00:06:43;;;;;;;0.10;0.10;;;16.90;65.90;;;18.40;56.57;102004.28;2074862;28;20049;-64
2022/07/27 00:07:46;;;;;;;0.00;0.00;;;16.80;65.90;;;18.37;56.43;102002.25;2077907;28;20508;-63
2022/07/27 00:08:50;;;;;;;0.10;0.10;;;16.80;66.00;;;18.37;56.18;102015.91;2078568;28;20049;-64
2022/07/27 00:09:52;;;;;;;0.03;0.03;;;16.80;66.00;;;18.34;56.57;102007.66;2078447;28;20049;-63
2022/07/27 00:10:57;;;;;;;0.05;0.05;;;16.80;65.90;;;18.32;56.11;102005.28;2078419;28;20073;-63
2022/07/27 00:12:01;;;;;;;0.00;0.00;;;16.80;65.80;;;18.28;56.23;102000.91;2078650;28;20642;-64
2022/07/27 00:13:04;;;;;;;0.03;0.03;;;16.80;65.70;;;18.23;55.96;102004.72;2077258;28;20045;-63
2022/07/27 00:14:08;;;;;;;0.10;0.10;;;16.70;65.50;;;18.23;56.23;102012.94;2068814;28;20057;-63
2022/07/27 00:15:11;;;;;;;0.00;0.00;;;16.80;65.50;;;18.21;55.97;102009.78;2068812;28;20081;-64
2022/07/27 00:16:15;;;;;;;0.05;0.05;;;16.70;65.20;;;18.21;55.71;102009.78;2077403;28;20413;-63
2022/07/27 00:17:22;;;;;;;0.00;0.00;;;16.70;64.90;;;18.21;55.65;102009.78;2079074;28;20127;-63
2022/07/27 00:18:27;;;;;;;0.00;0.00;;;16.70;64.60;;;18.21;55.26;102009.78;2077905;28;20048;-65
2022/07/27 00:19:30;;;;;;;0.00;0.00;;;16.70;64.60;;;18.21;55.53;102015.22;2077871;28;20124;-63
2022/07/27 00:20:34;;;;;;;0.10;0.10;;;16.60;64.50;;;18.20;55.07;102012.88;2076656;28;20058;-63
2022/07/27 00:21:38;;;;;;;0.00;0.00;;;16.60;64.50;;;18.19;55.20;102003.88;2074452;28;20049;-63
2022/07/27 00:22:47;;;;;;;0.00;0.00;;;16.60;64.60;;;18.19;55.39;102009.34;2076868;28;20102;-64
2022/07/27 00:23:51;;;;;;;0.00;0.00;;;16.60;64.60;;;18.18;55.34;102009.69;2077922;28;20567;-63
2022/07/27 00:24:53;;;;;;;0.00;0.00;;;16.60;64.60;;;18.19;55.31;102003.88;2076940;28;20056;-63
2022/07/27 00:25:57;;;;;;;0.00;0.00;;;16.70;64.70;;;18.20;55.50;102008.19;2075885;28;20412;-63
2022/07/27 00:26:59;;;;;;;0.00;0.00;;;16.70;64.70;;;18.22;55.47;102007.84;2077634;28;20053;-63
2022/07/27 00:28:04;;;;;;;0.00;0.00;;;16.70;64.60;;;18.23;55.64;102007.47;2075396;28;20056;-63
2022/07/27 00:29:07;;;;;;;0.00;0.00;;;16.70;64.60;;;18.25;55.30;102002.41;2078498;28;20045;-65
2022/07/27 00:30:12;;;;;;;0.10;0.10;;;16.80;64.60;;;18.27;55.38;101997.38;2074800;28;20061;-63
2022/07/27 00:31:15;;;;;;;0.00;0.00;;;16.80;64.50;;;18.29;55.25;102003.28;2073832;28;20053;-66
2022/07/27 00:32:19;;;;;;;0.10;0.10;;;16.80;64.40;;;18.30;55.52;102007.56;2075773;28;20114;-63
2022/07/27 00:33:22;;;;;;;0.00;0.00;;;16.80;64.40;;;18.31;55.30;102003.72;2077657;28;20084;-63
2022/07/27 00:34:27;;;;;;;0.00;0.00;;;16.80;64.40;;;18.32;55.43;101999.81;2075734;28;20417;-63
2022/07/27 00:35:30;;;;;;;0.00;0.00;;;16.80;64.40;;;18.34;55.22;102002.97;2075772;28;20600;-63
2022/07/27 00:36:36;;;;;;;0.00;0.00;;;16.80;64.30;;;18.36;55.29;102008.06;2076651;28;20058;-63
2022/07/27 00:37:39;;;;;;;0.00;0.00;;;16.90;64.30;;;18.40;54.97;102006.22;2077029;28;20056;-63
2022/07/27 00:38:42;;;;;;;0.10;0.10;;;16.90;64.30;;;18.41;55.13;102005.84;2075631;28;20057;-63
2022/07/27 00:39:45;;;;;;;0.08;0.08;;;16.90;64.20;;;18.43;55.15;102000.81;2072228;28;20067;-63
2022/07/27 00:40:49;;;;;;;0.00;0.00;;;16.90;64.30;;;18.44;55.09;102007.84;2075752;28;20160;-63
2022/07/27 00:41:53;;;;;;;0.00;0.00;;;16.90;64.20;;;18.46;55.04;102008.28;2075452;28;20122;-63
2022/07/27 00:42:56;;;;;;;0.00;0.00;;;16.90;64.20;;;18.47;55.03;102004.38;2074267;28;20627;-64
2022/07/27 00:44:02;;;;;;;0.00;0.00;;;16.90;64.20;;;18.46;55.29;102010.22;2076188;28;20042;-63
2022/07/27 00:45:06;;;;;;;0.10;0.10;;;16.90;64.30;;;18.45;55.26;101994.97;2074993;28;20046;-63
2022/07/27 00:46:10;;;;;;;0.00;0.00;;;16.90;64.40;;;18.46;55.05;102007.47;2077417;28;20048;-65
2022/07/27 00:47:14;;;;;;;0.10;0.10;;;16.90;64.30;;;18.46;55.15;102007.47;2066594;28;20046;-63
2022/07/27 00:48:17;;;;;;;0.10;0.10;;;16.90;64.20;;;18.47;54.93;102007.13;2067351;28;20636;-64
2022/07/27 00:49:20;;;;;;;0.10;0.10;;;17.00;64.30;;;18.48;55.28;102005.97;2076557;28;20046;-66
2022/07/27 00:50:25;;;;;;;0.00;0.00;;;16.90;64.80;;;18.48;55.41;102005.97;2076749;28;20111;-63
2022/07/27 00:51:28;;;;;;;0.00;0.00;;;16.90;64.30;;;18.48;55.12;102005.19;2077824;28;20060;-63
2022/07/27 00:52:32;;;;;;;0.00;0.00;;;16.90;64.30;;;18.48;55.25;102013.38;2074452;28;20298;-64
2022/07/27 00:53:35;;;;;;;0.00;0.00;;;16.90;64.40;;;18.47;55.19;102004.38;2074322;28;20053;-63
2022/07/27 00:54:40;;;;;;;0.00;0.00;;;16.90;64.30;;;18.46;55.34;102005.53;2076862;28;20135;-64
2022/07/27 00:55:43;;;;;;;0.00;0.00;;;16.90;64.40;;;18.44;55.23;102005.13;2077308;28;20060;-64
2022/07/27 00:56:47;;;;;;;0.08;0.08;;;16.90;64.40;;;18.40;55.17;102004.28;2074604;28;20152;-64
2022/07/27 00:57:50;;;;;;;0.00;0.00;;;16.90;64.40;;;18.41;54.97;102016.78;2073067;28;20387;-63
2022/07/27 00:59:02;;;;;;;0.08;0.08;;;16.80;64.40;;;18.40;55.18;102009.75;2074425;28;20164;-63
2022/07/27 01:00:07;;;;;;;0.00;0.00;;;16.80;64.40;;;18.36;55.01;102019.78;2076610;28;20081;-63
2022/07/27 01:01:10;;;;;;;0.03;0.03;;;16.80;64.40;;;18.32;55.29;102018.94;2067813;28;20046;-63
2022/07/27 01:02:15;;;;;;;0.00;0.00;;;16.70;64.30;;;18.28;55.04;102020.84;2069152;28;20115;-64
2022/07/27 01:03:23;;;;;;;0.00;0.00;;;16.70;64.20;;;18.25;55.01;102016.06;2076672;28;20104;-63
2022/07/27 01:04:32;;;;;;;0.10;0.10;;;16.70;64.40;;;18.23;54.85;102012.13;2074732;28;20062;-64
2022/07/27 01:05:38;;;;;;;0.10;0.10;;;16.60;64.40;;;18.22;54.97;102014.06;2076833;28;20054;-63
2022/07/27 01:06:45;;;;;;;0.10;0.10;;;16.60;64.50;;;18.22;55.16;102014.06;2074589;28;20049;-63
2022/07/27 01:07:48;;;;;;;0.03;0.03;;;16.60;64.50;;;18.11;55.00;101999.41;2075256;28;20053;-64
2022/07/27 01:09:55;;;;;;;0.00;0.00;;;16.60;64.60;;;18.16;55.44;102015.53;2076591;28;20072;-64
2022/07/27 01:10:17;;;;;;;0.03;0.03;;;16.50;64.70;;;18.16;55.28;102010.06;2074206;28;20073;-64
2022/07/27 01:11:19;;;;;;;0.03;0.03;;;16.50;65.00;;;18.14;55.33;102009.63;2074050;28;20062;-64
2022/07/27 01:12:25;;;;;;;0.00;0.00;;;16.50;65.20;;;18.15;55.70;102011.22;2073352;28;20553;-64
2022/07/27 01:13:28;;;;;;;0.10;0.10;;;16.50;65.20;;;18.15;55.49;102005.75;2073719;28;20046;-64
2022/07/27 01:14:32;;;;;;;0.10;0.10;;;16.50;65.30;;;18.15;55.63;102008.50;2072713;28;20070;-63
2022/07/27 01:15:37;;;;;;;0.10;0.10;;;16.50;65.30;;;18.13;55.81;102005.31;2075342;28;20061;-64
2022/07/27 01:16:41;;;;;;;0.08;0.08;;;16.40;65.40;;;18.09;55.77;102000.94;2075153;28;20493;-63
2022/07/27 01:17:44;;;;;;;0.00;0.00;;;16.40;65.50;;;18.12;55.85;102005.69;2074161;28;20501;-63
2022/07/27 01:18:47;;;;;;;0.10;0.10;;;16.40;65.70;;;18.12;55.74;102005.69;2074557;28;20099;-63
2022/07/27 01:19:50;;;;;;;0.00;0.00;;;16.40;65.80;;;18.10;55.69;102003.31;2074610;28;20501;-64
2022/07/27 01:20:56;;;;;;;0.00;0.00;;;16.40;65.80;;;18.10;55.77;102006.06;2075588;28;20057;-63
2022/07/27 01:22:00;;;;;;;0.00;0.00;;;16.40;65.90;;;18.10;56.12;101997.84;2074802;28;20053;-63
2022/07/27 01:23:06;;;;;;;0.10;0.10;;;16.40;66.00;;;18.11;55.97;102006.84;2074802;28;20508;-63
2022/07/27 01:24:09;;;;;;;0.03;0.03;;;16.40;66.00;;;18.11;55.99;102004.88;2073979;28;20529;-64
2022/07/27 01:25:14;;;;;;;0.00;0.00;;;16.40;66.00;;;18.09;55.98;102007.22;2074081;28;20058;-65
2022/07/27 01:26:16;;;;;;;0.00;0.00;;;16.40;65.90;;;18.12;56.37;102008.41;2075133;28;20091;-63
2022/07/27 01:27:19;;;;;;;0.10;0.10;;;16.40;65.90;;;18.11;56.09;101995.91;2077558;28;20064;-63
2022/07/27 01:28:23;;;;;;;0.00;0.00;;;16.50;65.90;;;18.14;55.89;102008.84;2076504;28;20094;-63
2022/07/27 01:29:27;;;;;;;0.10;0.10;;;16.40;65.70;;;18.15;55.71;101999.50;2076494;28;20457;-63
2022/07/27 01:30:29;;;;;;;0.08;0.08;;;16.50;65.80;;;18.15;56.01;102003.03;2075329;28;20525;-64
2022/07/27 01:31:33;;;;;;;0.10;0.10;;;16.50;65.80;;;18.17;55.89;102003.44;2076214;28;20064;-63
2022/07/27 01:32:35;;;;;;;0.10;0.10;;;16.50;65.80;;;18.17;55.68;102003.44;2076606;28;20042;-63
2022/07/27 01:33:39;;;;;;;0.00;0.00;;;16.50;65.80;;;18.19;55.87;102001.13;2077700;28;20057;-63
2022/07/27 01:34:42;;;;;;;0.00;0.00;;;16.60;65.70;;;18.19;55.64;101992.94;2076594;28;20604;-63
2022/07/27 01:35:45;;;;;;;0.00;0.00;;;16.60;65.60;;;18.21;55.73;101996.09;2075283;28;20498;-63
2022/07/27 01:36:48;;;;;;;0.00;0.00;;;16.60;65.50;;;18.19;55.68;101990.19;2074923;28;20049;-64
2022/07/27 01:37:53;;;;;;;0.00;0.00;;;16.60;65.40;;;18.21;55.55;102003.50;2076859;28;20079;-63
2022/07/27 01:38:56;;;;;;;0.00;0.00;;;16.60;65.30;;;18.20;55.63;101993.72;2075689;28;20045;-63
2022/07/27 01:40:01;;;;;;;0.10;0.10;;;16.60;65.20;;;18.19;55.66;102001.13;2076681;28;20057;-63
2022/07/27 01:41:04;;;;;;;0.00;0.00;;;16.50;65.30;;;18.14;55.78;102006.91;2077480;28;20057;-64
2022/07/27 01:42:07;;;;;;;0.00;0.00;;;16.50;65.30;;;18.13;55.50;102002.59;2075165;28;20057;-64
2022/07/27 01:43:10;;;;;;;0.10;0.10;;;16.50;65.30;;;18.12;55.76;101995.56;2076230;28;20532;-68
2022/07/27 01:44:13;;;;;;;0.05;0.05;;;16.50;65.30;;;18.09;55.87;101993.56;2075219;28;20053;-63
2022/07/27 01:45:17;;;;;;;0.10;0.10;;;16.50;65.40;;;18.06;55.81;102002.44;2074418;28;20068;-63
2022/07/27 01:46:19;;;;;;;0.10;0.10;;;16.50;65.50;;;18.05;55.68;101995.41;2075899;28;20472;-64
2022/07/27 01:47:25;;;;;;;0.00;0.00;;;16.50;65.60;;;18.04;56.04;101990.31;2079563;28;20620;-64
2022/07/27 01:48:28;;;;;;;0.00;0.00;;;16.40;65.60;;;18.02;56.26;101996.13;2078952;28;20049;-65
2022/07/27 01:49:32;;;;;;;0.00;0.00;;;16.40;65.70;;;17.99;56.21;101991.41;2076314;28;20061;-63
2022/07/27 01:50:34;;;;;;;0.00;0.00;;;16.40;65.70;;;17.98;55.88;101981.63;2075449;28;20529;-63
2022/07/27 01:51:38;;;;;;;0.10;0.10;;;16.40;65.90;;;17.96;55.97;101980.41;2076593;28;20057;-64
2022/07/27 01:52:41;;;;;;;0.10;0.10;;;16.40;65.90;;;17.89;56.49;101979.13;2075658;28;20425;-64
2022/07/27 01:53:46;;;;;;;0.10;0.10;;;16.40;66.00;;;17.93;56.61;101987.38;2076142;28;20053;-63
2022/07/27 01:54:49;;;;;;;0.00;0.00;;;16.40;66.00;;;17.93;56.45;101981.94;2076626;28;20053;-63
2022/07/27 01:55:52;;;;;;;0.05;0.05;;;16.30;66.20;;;17.93;56.27;101981.94;2076497;28;20077;-64
2022/07/27 01:56:55;;;;;;;0.00;0.00;;;16.30;66.20;;;17.92;56.77;101985.03;2074200;28;20072;-62
2022/07/27 01:58:02;;;;;;;0.10;0.10;;;16.30;66.30;;;17.91;56.48;101984.22;2077762;28;20056;-63
2022/07/27 01:59:05;;;;;;;0.00;0.00;;;16.30;66.40;;;17.89;56.57;101976.38;2077160;28;20084;-63
2022/07/27 02:00:12;;;;;;;0.00;0.00;;;16.30;66.50;;;17.87;56.58;101975.94;2075802;28;20077;-62
2022/07/27 02:01:14;;;;;;;0.00;0.00;;;16.30;66.60;;;17.91;56.62;101984.22;2075698;28;20761;-63
2022/07/27 02:02:18;;;;;;;0.10;0.10;;;16.30;66.70;;;17.89;57.07;101987.31;2076315;28;20505;-63
2022/07/27 02:03:21;;;;;;;0.05;0.05;;;16.30;66.80;;;17.89;56.81;101978.31;2075219;28;20128;-62
2022/07/27 02:04:24;;;;;;;0.05;0.05;;;16.30;66.80;;;17.89;56.82;101986.53;2075656;28;20092;-62
2022/07/27 02:05:27;;;;;;;0.00;0.00;;;16.30;66.90;;;17.89;57.23;101983.78;2076959;28;20053;-63
2022/07/27 02:06:31;;;;;;;0.10;0.10;;;16.30;66.90;;;17.88;57.00;101977.56;2078629;28;20440;-64
2022/07/27 02:07:33;;;;;;;0.00;0.00;;;16.30;66.90;;;17.88;57.00;101979.47;2074794;28;20110;-63
2022/07/27 02:08:37;;;;;;;0.00;0.00;;;16.30;67.00;;;17.86;56.83;101979.06;2075184;28;20053;-62
2022/07/27 02:09:41;;;;;;;0.00;0.00;;;16.30;67.00;;;17.87;57.08;101988.81;2076334;28;20128;-63
2022/07/27 02:13:30;;;;;;;0.00;0.00;;;16.30;67.00;;;17.85;57.26;101983.72;2078929;28;20045;-63
2022/07/27 02:14:33;;;;;;;0.00;0.00;;;16.30;67.20;;;17.85;57.32;101985.69;2067804;28;20058;-63
2022/07/27 02:15:40;;;;;;;0.00;0.00;;;16.20;67.20;;;17.82;57.53;101976.25;2067905;28;20056;-63
2022/07/27 02:16:48;;;;;;;0.00;0.00;;;16.20;67.40;;;17.83;57.67;101979.78;2077334;28;20140;-66
2022/07/27 02:17:56;;;;;;;0.10;0.10;;;16.20;67.50;;;17.79;57.49;101976.19;2076470;28;20064;-62
2022/07/27 02:19:00;;;;;;;0.10;0.10;;;16.10;67.80;;;17.78;57.72;101980.88;2078028;28;20099;-62
2022/07/27 02:20:09;;;;;;;0.10;0.10;;;16.10;68.00;;;17.74;57.78;101979.22;2077504;28;20060;-62
2022/07/27 02:21:12;;;;;;;0.00;0.00;;;16.00;68.20;;;17.70;57.95;101979.13;2076830;28;20053;-62
2022/07/27 02:22:15;;;;;;;0.00;0.00;;;16.00;68.50;;;17.67;57.78;101979.88;2077027;28;20092;-64
2022/07/27 02:23:18;;;;;;;0.10;0.10;;;15.90;68.70;;;17.57;58.13;101971.44;2077089;28;20458;-63
2022/07/27 02:24:21;;;;;;;0.00;0.00;;;15.90;68.90;;;17.64;58.25;101975.13;2075970;28;20060;-63
2022/07/27 02:25:25;;;;;;;0.00;0.00;;;15.90;69.00;;;17.63;58.44;101972.75;2076679;28;20403;-63
2022/07/27 02:26:28;;;;;;;0.05;0.05;;;15.90;69.10;;;17.60;58.41;101979.72;2076233;28;20081;-63
2022/07/27 02:27:31;;;;;;;0.00;0.00;;;15.90;69.20;;;17.59;58.43;101975.41;2074949;28;20129;-64
2022/07/27 02:28:36;;;;;;;0.00;0.00;;;15.90;69.30;;;17.58;58.62;101971.09;2076277;28;20512;-63
2022/07/27 02:29:38;;;;;;;0.10;0.10;;;15.90;69.30;;;17.58;58.63;101982.00;2075100;28;21274;-63
2022/07/27 02:30:41;;;;;;;0.10;0.10;;;15.90;69.40;;;17.59;58.71;101982.81;2068431;28;20064;-63
2022/07/27 02:31:45;;;;;;;0.10;0.10;;;15.90;69.40;;;17.56;58.92;101978.06;2062193;28;20058;-63
2022/07/27 02:32:48;;;;;;;0.10;0.10;;;15.90;69.50;;;17.56;58.95;101978.06;2069843;28;20476;-63
2022/07/27 02:33:51;;;;;;;0.00;0.00;;;15.90;69.60;;;17.55;59.18;101977.25;2077160;28;20529;-64
2022/07/27 02:34:54;;;;;;;0.08;0.08;;;15.90;69.90;;;17.55;59.39;101974.53;2076582;28;20092;-64
2022/07/27 02:35:57;;;;;;;0.10;0.10;;;15.90;70.20;;;17.54;59.64;101970.22;2078658;28;20065;-63
2022/07/27 02:37:00;;;;;;;0.10;0.10;;;15.90;70.40;;;17.53;59.94;101965.94;2078153;28;20498;-63
2022/07/27 02:38:03;;;;;;;0.05;0.05;;;15.90;70.60;;;17.53;60.00;101967.88;2075017;28;20599;-63
2022/07/27 02:39:06;;;;;;;0.10;0.10;;;15.90;70.90;;;17.53;60.55;101965.13;2077440;28;20052;-64
2022/07/27 02:40:11;;;;;;;0.00;0.00;;;15.90;71.20;;;17.54;60.52;101963.97;2077542;28;20142;-64
2022/07/27 02:41:15;;;;;;;0.10;0.10;;;16.00;71.50;;;17.55;60.42;101971.03;2078929;28;20081;-63
2022/07/27 02:42:18;;;;;;;0.10;0.10;;;15.90;71.50;;;17.57;60.86;101966.78;2077791;28;20429;-63
2022/07/27 02:43:21;;;;;;;0.10;0.10;;;15.90;71.80;;;17.59;60.75;101963.69;2075552;28;20568;-63
2022/07/27 02:44:24;;;;;;;0.10;0.10;;;16.00;72.10;;;17.61;61.13;101964.13;2076469;28;20540;-63
2022/07/27 02:45:27;;;;;;;0.10;0.10;;;16.00;72.30;;;17.60;61.17;101963.31;2077639;28;20059;-64
2022/07/27 02:46:30;;;;;;;0.10;0.10;;;16.00;72.30;;;17.62;61.26;101960.22;2076358;28;20084;-63
2022/07/27 02:47:33;;;;;;;0.10;0.10;;;16.00;72.50;;;17.61;61.46;101964.94;2075986;28;20128;-63
2022/07/27 02:48:36;;;;;;;0.00;0.00;;;16.00;72.60;;;17.65;61.42;101964.97;2077518;28;20128;-64
2022/07/27 02:49:39;;;;;;;0.10;0.10;;;16.00;72.70;;;17.67;61.69;101963.47;2078009;28;20053;-63
2022/07/27 02:50:42;;;;;;;0.10;0.10;;;16.10;73.00;;;17.70;61.53;101961.94;2068168;28;20046;-63
2022/07/27 02:51:48;;;;;;;0.10;0.10;;;16.00;72.90;;;17.71;61.79;101960.81;2067481;28;20058;-63
2022/07/27 02:52:50;;;;;;;0.10;0.10;;;16.10;73.00;;;17.73;61.84;101969.41;2077091;28;20061;-63
2022/07/27 02:53:54;;;;;;;0.10;0.10;;;16.10;73.00;;;17.73;61.66;101963.97;2078231;28;20053;-63
2022/07/27 02:54:56;;;;;;;0.03;0.03;;;16.10;72.90;;;17.70;61.71;101959.22;2076861;28;20841;-64
2022/07/27 02:56:00;;;;;;;0.10;0.10;;;16.10;73.00;;;17.73;61.98;101966.69;2075060;28;20810;-63
2022/07/27 02:57:03;;;;;;;0.03;0.03;;;16.10;73.20;;;17.74;61.88;101965.56;2077064;28;20088;-64
2022/07/27 02:58:07;;;;;;;0.10;0.10;;;16.10;73.30;;;17.77;61.62;101962.09;2078008;28;20615;-63
2022/07/27 02:59:09;;;;;;;0.05;0.05;;;16.10;73.10;;;17.77;61.65;101959.38;2074533;28;20053;-63
2022/07/27 03:00:17;;;;;;;0.03;0.03;;;16.10;73.10;;;17.74;62.00;101952.66;2075456;28;20117;-63
2022/07/27 03:01:21;;;;;;;0.10;0.10;;;16.10;73.30;;;17.78;61.75;101969.13;2075768;28;20057;-63
2022/07/27 03:02:24;;;;;;;0.08;0.08;;;16.10;73.30;;;17.79;61.70;101962.53;2075607;28;20042;-64
2022/07/27 03:03:27;;;;;;;0.10;0.10;;;16.10;73.30;;;17.80;61.96;101966.84;2075349;28;20056;-63
2022/07/27 03:04:39;;;;;;;0.10;0.10;;;16.10;73.50;;;17.81;61.84;101962.94;2075635;28;20076;-63
2022/07/27 03:05:41;;;;;;;0.10;0.10;;;16.10;73.40;;;17.82;61.53;101964.53;2077954;28;20101;-63
2022/07/27 03:06:45;;;;;;;0.10;0.10;;;16.10;73.30;;;17.81;61.86;101963.75;2074761;28;20058;-63
2022/07/27 03:07:47;;;;;;;0.10;0.10;;;16.10;73.40;;;17.80;62.04;101961.38;2075330;28;21397;-63
2022/07/27 03:08:51;;;;;;;0.10;0.10;;;16.10;73.40;;;17.80;62.04;101962.19;2073934;28;20054;-64
2022/07/27 03:09:53;;;;;;;0.10;0.10;;;16.10;73.50;;;17.80;62.06;101961.38;2074642;28;20517;-64
2022/07/27 03:10:56;;;;;;;0.10;0.10;;;16.10;73.50;;;17.80;62.05;101961.38;2074811;28;20513;-63
2022/07/27 03:11:59;;;;;;;0.10;0.10;;;16.10;73.60;;;17.79;62.18;101965.28;2074896;28;20104;-63
2022/07/27 03:13:04;;;;;;;0.10;0.10;;;16.10;73.60;;;17.78;62.00;101972.66;2075000;28;20081;-63
2022/07/27 03:14:06;;;;;;;0.00;0.00;;;16.10;73.70;;;17.78;62.06;101969.13;2075692;28;20066;-63
2022/07/27 03:15:11;;;;;;;0.10;0.10;;;16.00;73.80;;;17.77;62.23;101967.56;2077468;28;20076;-64
2022/07/27 03:16:13;;;;;;;0.10;0.10;;;16.00;73.90;;;17.76;62.17;101965.97;2076282;28;20081;-63
2022/07/27 03:17:17;;;;;;;0.10;0.10;;;16.00;74.10;;;17.75;62.25;101964.41;2075985;28;20488;-63
2022/07/27 03:18:20;;;;;;;0.10;0.10;;;16.10;74.20;;;17.74;62.47;101969.06;2075132;28;20064;-63
2022/07/27 03:19:23;;;;;;;0.10;0.10;;;16.10;74.20;;;17.74;62.59;101968.28;2075175;28;20078;-63
2022/07/27 03:20:31;;;;;;;0.10;0.10;;;16.00;74.20;;;17.73;62.45;101967.50;2074754;28;20541;-66
2022/07/27 03:21:35;;;;;;;0.10;0.10;;;16.00;74.20;;;17.72;62.61;101970.59;2075962;28;20126;-66
2022/07/27 03:22:37;;;;;;;0.10;0.10;;;16.00;74.30;;;17.68;62.63;101965.03;2074190;28;20052;-65
2022/07/27 03:23:41;;;;;;;0.10;0.10;;;16.00;74.40;;;17.67;62.82;101968.94;2076631;28;20053;-63
2022/07/27 03:24:44;;;;;;;0.00;0.00;;;15.90;74.40;;;17.65;62.79;101964.97;2075413;28;20089;-63
2022/07/27 03:25:47;;;;;;;0.08;0.08;;;15.90;74.50;;;17.63;62.67;101970.03;2076742;28;20049;-63
2022/07/27 03:26:50;;;;;;;0.10;0.10;;;15.80;74.70;;;17.63;62.84;101961.84;2075250;28;20053;-68
2022/07/27 03:27:53;;;;;;;0.10;0.10;;;15.80;74.90;;;17.63;62.77;101967.28;2075940;28;20080;-64
2022/07/27 03:28:58;;;;;;;0.10;0.10;;;15.80;74.90;;;17.63;62.72;101972.75;2075362;28;20093;-65
2022/07/27 03:30:01;;;;;;;0.10;0.10;;;15.80;75.20;;;17.61;62.63;101966.84;2075318;28;20604;-63
2022/07/27 03:31:04;;;;;;;0.10;0.10;;;15.80;75.20;;;17.61;62.75;101966.84;2075113;28;20566;-63
2022/07/27 03:32:10;;;;;;;0.10;0.10;;;15.80;75.20;;;17.59;62.93;101971.88;2074976;28;20054;-63
2022/07/27 03:33:12;;;;;;;0.10;0.10;;;15.70;75.20;;;17.58;62.75;101970.31;2075265;28;20497;-65
2022/07/27 03:34:16;;;;;;;0.03;0.03;;;15.70;75.20;;;17.56;62.75;101978.06;2067382;28;20483;-64
2022/07/27 03:35:18;;;;;;;0.10;0.10;;;15.70;75.30;;;17.57;62.83;101976.91;2066888;28;20133;-63
2022/07/27 03:36:22;;;;;;;0.10;0.10;;;15.70;75.40;;;17.55;62.74;101974.53;2075217;28;21978;-63
2022/07/27 03:37:25;;;;;;;0.10;0.10;;;15.70;75.40;;;17.53;62.73;101978.78;2075085;28;20570;-63
2022/07/27 03:38:29;;;;;;;0.10;0.10;;;15.70;75.40;;;17.53;62.90;101973.31;2075613;28;20077;-64
2022/07/27 03:39:32;;;;;;;0.10;0.10;;;15.70;75.50;;;17.52;62.98;101977.22;2076818;28;20133;-64
2022/07/27 03:40:36;;;;;;;0.10;0.10;;;15.70;75.50;;;17.52;62.89;101982.69;2076187;28;20492;-64
2022/07/27 03:41:39;;;;;;;0.05;0.05;;;15.70;75.50;;;17.50;62.89;101979.50;2075681;28;20068;-63
2022/07/27 03:42:42;;;;;;;0.10;0.10;;;15.60;75.50;;;17.49;63.06;101972.47;2076308;28;20084;-63
2022/07/27 03:43:44;;;;;;;0.10;0.10;;;15.70;75.60;;;17.47;63.09;101977.50;2077044;28;20521;-63
2022/07/27 03:44:50;;;;;;;0.05;0.05;;;15.70;75.60;;;17.46;63.27;101973.16;2075934;28;20421;-65
2022/07/27 03:45:53;;;;;;;0.10;0.10;;;15.70;75.60;;;17.46;63.18;101976.69;2075003;28;20085;-63
2022/07/27 03:46:57;;;;;;;0.13;0.13;;;15.70;75.60;;;17.47;63.29;101980.22;2074050;28;20136;-63
2022/07/27 03:48:00;;;;;;;0.03;0.03;;;15.70;75.40;;;17.46;63.18;101978.63;2075624;28;20056;-64
2022/07/27 03:49:04;;;;;;;0.10;0.10;;;15.70;75.20;;;17.44;62.87;101979.00;2075603;28;20054;-63
2022/07/27 03:50:18;;;;;;;0.10;0.10;;;15.70;75.30;;;17.38;63.37;101982.34;2074563;28;20059;-63
2022/07/27 03:51:21;;;;;;;0.10;0.10;;;15.70;75.20;;;17.34;63.14;101989.66;2068119;28;20053;-63
2022/07/27 03:52:25;;;;;;;0.10;0.10;;;15.70;75.40;;;17.32;63.56;101995.50;2067118;28;20053;-64
2022/07/27 03:53:27;;;;;;;0.10;0.10;;;15.70;75.40;;;17.31;63.68;101995.84;2074181;28;20387;-63
2022/07/27 03:54:33;;;;;;;0.10;0.10;;;15.60;75.40;;;17.28;63.57;101993.84;2075062;28;20084;-64
2022/07/27 03:55:36;;;;;;;0.10;0.10;;;15.60;75.40;;;17.24;63.26;101996.47;2074821;28;20062;-63
2022/07/27 03:56:46;;;;;;;0.10;0.10;;;15.50;75.30;;;17.21;63.76;101999.13;2074749;28;20049;-63
2022/07/27 03:57:49;;;;;;;0.10;0.10;;;15.50;75.50;;;17.16;63.67;101994.75;2075010;28;20046;-63
2022/07/27 03:58:53;;;;;;;0.10;0.10;;;15.50;75.50;;;17.16;63.77;101993.94;2074273;28;20045;-63
2022/07/27 03:59:57;;;;;;;0.00;0.00;;;15.50;75.70;;;17.15;63.97;102001.34;2075898;28;20084;-63
2022/07/27 04:01:00;;;;;;;0.08;0.08;;;15.60;76.00;;;17.14;64.37;101999.75;2075194;28;20436;-63
2022/07/27 04:02:03;;;;;;;0.10;0.10;;;15.60;76.20;;;17.15;64.71;101997.81;2076335;28;20056;-63
2022/07/27 04:03:06;;;;;;;0.10;0.10;;;15.60;76.40;;;17.14;64.81;102001.72;2076563;28;20062;-63
2022/07/27 04:04:09;;;;;;;0.10;0.10;;;15.60;76.60;;;17.15;65.09;101995.09;2076690;28;20099;-64
2022/07/27 04:05:13;;;;;;;0.10;0.10;;;15.60;76.60;;;17.12;65.21;102002.06;2075295;28;20054;-62
2022/07/27 04:06:15;;;;;;;0.10;0.10;;;15.60;76.90;;;17.11;65.48;101994.25;2075927;28;20064;-63
2022/07/27 04:07:19;;;;;;;0.10;0.10;;;15.60;77.10;;;17.07;65.88;101988.69;2076745;28;20410;-63
2022/07/27 04:08:22;;;;;;;0.10;0.10;;;15.60;77.20;;;17.06;66.27;101997.25;2075711;28;20065;-63
2022/07/27 04:09:25;;;;;;;0.10;0.10;;;15.60;77.30;;;17.02;66.29;101990.91;2075961;28;20600;-63
2022/07/27 04:10:30;;;;;;;0.10;0.10;;;15.60;77.50;;;17.02;66.59;101993.63;2075245;28;20056;-63
2022/07/27 04:11:34;;;;;;;0.10;0.10;;;15.60;77.80;;;17.01;66.94;101995.59;2075480;28;20049;-63
2022/07/27 04:12:46;;;;;;;0.10;0.10;;;15.60;77.90;;;17.01;66.89;101997.50;2074935;28;20049;-63
2022/07/27 04:13:49;;;;;;;0.10;0.10;;;15.60;78.00;;;17.01;66.92;102000.25;2074790;28;20050;-63
2022/07/27 04:14:53;;;;;;;0.10;0.10;;;15.60;78.10;;;17.02;66.94;101990.91;2074412;28;20053;-63
2022/07/27 04:15:57;;;;;;;0.10;0.10;;;15.60;78.20;;;17.02;67.09;101990.91;2074960;28;20057;-63
2022/07/27 04:17:00;;;;;;;0.10;0.10;;;15.60;78.40;;;17.04;66.80;101983.16;2074552;28;20058;-63
2022/07/27 04:18:03;;;;;;;0.10;0.10;;;15.60;78.20;;;17.04;67.33;101989.41;2074936;28;20049;-63
2022/07/27 04:19:07;;;;;;;0.05;0.05;;;15.60;78.30;;;17.07;66.58;101996.09;2075598;28;20658;-63
2022/07/27 04:20:11;;;;;;;0.00;0.00;;;15.60;78.20;;;17.08;66.58;101987.53;2074055;28;20057;-64
2022/07/27 04:21:15;;;;;;;0.10;0.10;;;15.60;78.30;;;17.08;66.94;101981.28;2073906;28;20050;-64
2022/07/27 04:22:18;;;;;;;0.10;0.10;;;15.60;78.40;;;17.13;66.80;101989.19;2074035;28;20567;-64
2022/07/27 04:23:21;;;;;;;0.10;0.10;;;15.70;78.60;;;17.17;67.11;101992.81;2074849;28;20064;-63
2022/07/27 04:24:24;;;;;;;0.10;0.10;;;15.70;78.80;;;17.16;66.88;101983.03;2074883;28;20484;-63
2022/07/27 04:25:27;;;;;;;0.10;0.10;;;15.70;78.70;;;17.23;67.07;101989.44;2074443;28;20505;-64
2022/07/27 04:26:30;;;;;;;0.10;0.10;;;15.80;78.70;;;17.26;66.88;101994.19;2074826;28;20265;-63
2022/07/27 04:27:34;;;;;;;0.10;0.10;;;15.80;78.90;;;17.29;66.76;101989.94;2074742;28;20054;-63
2022/07/27 04:28:36;;;;;;;0.10;0.10;;;15.80;78.60;;;17.33;66.49;101996.28;2074782;28;20505;-63